sensor_id;sensor_type;location;lat;lon;timestamp;pressure;altitude;pressure_sealevel;temperature;humidity
68628;BME280;55611;48.602;9.490;2023-06-22T00:01:27;96930;;;24.8;52.5
68628;BME280;55611;48.602;9.490;2023-06-22T00:03:57;96940;;;24.8;52.5
68628;BME280;55611;48.602;9.490;2023-06-22T00:06:28;96940;;;24.7;52.5
68628;BME280;55611;48.602;9.490;2023-06-22T00:08:59;96930;;;24.6;52.5
68628;BME280;55611;48.602;9.490;2023-06-22T00:14:00;96930;;;24.4;52.5
68628;BME280;55611;48.602;9.490;2023-06-22T00:16:31;96940;;;24.3;52.5
68628;BME280;55611;48.602;9.490;2023-06-22T00:19:01;96930;;;24.3;52.5
68628;BME280;55611;48.602;9.490;2023-06-22T00:21:32;96930;;;24.1;52.5
68628;BME280;55611;48.602;9.490;2023-06-22T00:24:03;96930;;;24.1;52.5
68628;BME280;55611;48.602;9.490;2023-06-22T00:26:34;96940;;;24;52.5
68628;BME280;55611;48.602;9.490;2023-06-22T00:29:04;96940;;;23.9;52.5
68628;BME280;55611;48.602;9.490;2023-06-22T00:31:35;96930;;;23.9;52.5
68628;BME280;55611;48.602;9.490;2023-06-22T00:34:06;96940;;;23.9;52.5
68628;BME280;55611;48.602;9.490;2023-06-22T00:39:07;96920;;;23.9;52.5
68628;BME280;55611;48.602;9.490;2023-06-22T00:41:38;96930;;;23.9;52.5
68628;BME280;55611;48.602;9.490;2023-06-22T00:44:08;96930;;;23.8;52.5
68628;BME280;55611;48.602;9.490;2023-06-22T00:46:39;96930;;;23.8;52.5
68628;BME280;55611;48.602;9.490;2023-06-22T00:49:10;96930;;;23.7;52.5
68628;BME280;55611;48.602;9.490;2023-06-22T00:51:41;96920;;;23.6;52.5
68628;BME280;55611;48.602;9.490;2023-06-22T00:54:12;96920;;;23.5;52.5
68628;BME280;55611;48.602;9.490;2023-06-22T00:56:42;96910;;;23.5;53
68628;BME280;55611;48.602;9.490;2023-06-22T00:59:13;96920;;;23.4;53
68628;BME280;55611;48.602;9.490;2023-06-22T01:01:44;96910;;;23.4;53
68628;BME280;55611;48.602;9.490;2023-06-22T01:04:15;96920;;;23.3;53
68628;BME280;55611;48.602;9.490;2023-06-22T01:06:52;96910;;;23.3;53
68628;BME280;55611;48.602;9.490;2023-06-22T01:09:18;96910;;;23.2;53
68628;BME280;55611;48.602;9.490;2023-06-22T01:11:51;96920;;;23.2;53
68628;BME280;55611;48.602;9.490;2023-06-22T01:14:20;96920;;;23.1;53
68628;BME280;55611;48.602;9.490;2023-06-22T01:16:49;96920;;;23.1;53
68628;BME280;55611;48.602;9.490;2023-06-22T01:19:51;96920;;;23.1;53
68628;BME280;55611;48.602;9.490;2023-06-22T01:21:50;96930;;;23.1;53
68628;BME280;55611;48.602;9.490;2023-06-22T01:24:23;96930;;;23.1;53
68628;BME280;55611;48.602;9.490;2023-06-22T01:27:00;96920;;;23.2;53
68628;BME280;55611;48.602;9.490;2023-06-22T01:29:22;96930;;;23.2;53
68628;BME280;55611;48.602;9.490;2023-06-22T01:31:53;96930;;;23.2;53
68628;BME280;55611;48.602;9.490;2023-06-22T01:34:24;96930;;;23.3;53
68628;BME280;55611;48.602;9.490;2023-06-22T01:36:55;96930;;;23.2;53
68628;BME280;55611;48.602;9.490;2023-06-22T01:39:26;96940;;;23.2;53
68628;BME280;55611;48.602;9.490;2023-06-22T01:41:56;96950;;;23.1;53
68628;BME280;55611;48.602;9.490;2023-06-22T01:44:27;96950;;;23.1;53
68628;BME280;55611;48.602;9.490;2023-06-22T01:46:58;96960;;;23;53
68628;BME280;55611;48.602;9.490;2023-06-22T01:49:29;96960;;;22.9;53
68628;BME280;55611;48.602;9.490;2023-06-22T01:51:59;96950;;;22.9;53
68628;BME280;55611;48.602;9.490;2023-06-22T01:54:30;96960;;;22.9;53
68628;BME280;55611;48.602;9.490;2023-06-22T01:57:01;96960;;;22.9;53
68628;BME280;55611;48.602;9.490;2023-06-22T01:59:34;96950;;;22.8;53
68628;BME280;55611;48.602;9.490;2023-06-22T02:02:04;96950;;;22.7;53
68628;BME280;55611;48.602;9.490;2023-06-22T02:04:34;96950;;;22.7;53
68628;BME280;55611;48.602;9.490;2023-06-22T02:07:05;96950;;;22.7;53
68628;BME280;55611;48.602;9.490;2023-06-22T02:09:35;96940;;;22.6;53
68628;BME280;55611;48.602;9.490;2023-06-22T02:12:06;96930;;;22.6;53
68628;BME280;55611;48.602;9.490;2023-06-22T02:14:36;96930;;;22.6;53
68628;BME280;55611;48.602;9.490;2023-06-22T02:17:08;96930;;;22.6;53
68628;BME280;55611;48.602;9.490;2023-06-22T02:19:38;96930;;;22.6;53
68628;BME280;55611;48.602;9.490;2023-06-22T02:24:39;96930;;;22.5;53
68628;BME280;55611;48.602;9.490;2023-06-22T02:27:10;96930;;;22.5;53
68628;BME280;55611;48.602;9.490;2023-06-22T02:29:41;96930;;;22.5;53
68628;BME280;55611;48.602;9.490;2023-06-22T02:32:12;96930;;;22.5;53
68628;BME280;55611;48.602;9.490;2023-06-22T02:34:43;96930;;;22.6;53
68628;BME280;55611;48.602;9.490;2023-06-22T02:37:14;96930;;;22.6;53
68628;BME280;55611;48.602;9.490;2023-06-22T02:39:44;96940;;;22.7;53
68628;BME280;55611;48.602;9.490;2023-06-22T02:42:15;96950;;;22.7;53
68628;BME280;55611;48.602;9.490;2023-06-22T02:44:46;96950;;;22.7;53
68628;BME280;55611;48.602;9.490;2023-06-22T02:47:16;96940;;;22.7;53
68628;BME280;55611;48.602;9.490;2023-06-22T02:49:47;96950;;;22.7;53
68628;BME280;55611;48.602;9.490;2023-06-22T02:52:18;96950;;;22.6;53
68628;BME280;55611;48.602;9.490;2023-06-22T02:54:49;96950;;;22.6;53
68628;BME280;55611;48.602;9.490;2023-06-22T02:57:20;96940;;;22.5;53
68628;BME280;55611;48.602;9.490;2023-06-22T02:59:50;96950;;;22.4;53
68628;BME280;55611;48.602;9.490;2023-06-22T03:02:21;96950;;;22.3;53
68628;BME280;55611;48.602;9.490;2023-06-22T03:04:52;96940;;;22.3;53
68628;BME280;55611;48.602;9.490;2023-06-22T03:07:23;96930;;;22.2;53.5
68628;BME280;55611;48.602;9.490;2023-06-22T03:09:53;96920;;;22.2;53.5
68628;BME280;55611;48.602;9.490;2023-06-22T03:12:24;96920;;;22.1;53.5
68628;BME280;55611;48.602;9.490;2023-06-22T03:14:55;96920;;;22.1;53.5
68628;BME280;55611;48.602;9.490;2023-06-22T03:17:26;96920;;;22.1;53.5
68628;BME280;55611;48.602;9.490;2023-06-22T03:19:56;96920;;;22;53.5
68628;BME280;55611;48.602;9.490;2023-06-22T03:22:27;96920;;;22.1;53.5
68628;BME280;55611;48.602;9.490;2023-06-22T03:24:58;96910;;;22.1;53.5
68628;BME280;55611;48.602;9.490;2023-06-22T03:27:29;96910;;;22.1;53.5
68628;BME280;55611;48.602;9.490;2023-06-22T03:30:00;96900;;;22.1;53.5
68628;BME280;55611;48.602;9.490;2023-06-22T03:32:30;96900;;;22.1;53.5
68628;BME280;55611;48.602;9.490;2023-06-22T03:35:01;96900;;;22.1;53.5
68628;BME280;55611;48.602;9.490;2023-06-22T03:37:32;96900;;;22.1;53.5
68628;BME280;55611;48.602;9.490;2023-06-22T03:40:03;96890;;;22.1;53.5
68628;BME280;55611;48.602;9.490;2023-06-22T03:42:34;96890;;;22.1;53.5
68628;BME280;55611;48.602;9.490;2023-06-22T03:45:04;96890;;;22.1;53.5
68628;BME280;55611;48.602;9.490;2023-06-22T03:47:35;96890;;;22.2;53.5
68628;BME280;55611;48.602;9.490;2023-06-22T03:50:06;96890;;;22.4;53.5
68628;BME280;55611;48.602;9.490;2023-06-22T03:52:37;96880;;;22.5;53.5
68628;BME280;55611;48.602;9.490;2023-06-22T03:55:07;96890;;;22.7;53.5
68628;BME280;55611;48.602;9.490;2023-06-22T03:57:38;96890;;;22.9;53.5
68628;BME280;55611;48.602;9.490;2023-06-22T04:00:09;96890;;;23;53.5
68628;BME280;55611;48.602;9.490;2023-06-22T04:02:40;96890;;;23;53.5
68628;BME280;55611;48.602;9.490;2023-06-22T04:05:10;96890;;;23.2;53.5
68628;BME280;55611;48.602;9.490;2023-06-22T04:07:41;96890;;;23.3;53.5
68628;BME280;55611;48.602;9.490;2023-06-22T04:10:12;96890;;;23.4;53.5
68628;BME280;55611;48.602;9.490;2023-06-22T04:12:43;96880;;;23.6;53.5
68628;BME280;55611;48.602;9.490;2023-06-22T04:15:14;96890;;;23.7;53
68628;BME280;55611;48.602;9.490;2023-06-22T04:17:44;96880;;;23.8;53
68628;BME280;55611;48.602;9.490;2023-06-22T04:20:15;96880;;;24;53
68628;BME280;55611;48.602;9.490;2023-06-22T04:22:46;96870;;;24.1;53
68628;BME280;55611;48.602;9.490;2023-06-22T04:25:17;96870;;;24.2;53
68628;BME280;55611;48.602;9.490;2023-06-22T04:27:50;96870;;;24.3;52.5
68628;BME280;55611;48.602;9.490;2023-06-22T04:30:18;96870;;;24.4;52.5
68628;BME280;55611;48.602;9.490;2023-06-22T04:32:49;96870;;;24.5;52.5
68628;BME280;55611;48.602;9.490;2023-06-22T04:35:20;96870;;;24.6;52.5
68628;BME280;55611;48.602;9.490;2023-06-22T04:37:50;96860;;;24.7;52.5
68628;BME280;55611;48.602;9.490;2023-06-22T04:40:22;96850;;;24.8;52.5
68628;BME280;55611;48.602;9.490;2023-06-22T04:42:53;96850;;;24.9;52
68628;BME280;55611;48.602;9.490;2023-06-22T04:45:23;96850;;;24.9;52
68628;BME280;55611;48.602;9.490;2023-06-22T04:47:54;96840;;;25;52.5
68628;BME280;55611;48.602;9.490;2023-06-22T04:50:24;96830;;;25.1;52.5
68628;BME280;55611;48.602;9.490;2023-06-22T04:52:55;96830;;;25.1;52.5
68628;BME280;55611;48.602;9.490;2023-06-22T04:55:26;96830;;;25.2;52
68628;BME280;55611;48.602;9.490;2023-06-22T04:57:57;96830;;;25.3;52
68628;BME280;55611;48.602;9.490;2023-06-22T05:00:27;96830;;;25.5;52
68628;BME280;55611;48.602;9.490;2023-06-22T05:02:58;96820;;;25.5;52
68628;BME280;55611;48.602;9.490;2023-06-22T05:05:29;96820;;;25.5;52
68628;BME280;55611;48.602;9.490;2023-06-22T05:08:00;96810;;;25.6;52
68628;BME280;55611;48.602;9.490;2023-06-22T05:10:31;96810;;;25.7;52
68628;BME280;55611;48.602;9.490;2023-06-22T05:13:01;96810;;;25.8;52
68628;BME280;55611;48.602;9.490;2023-06-22T05:15:32;96810;;;25.9;52
68628;BME280;55611;48.602;9.490;2023-06-22T05:18:03;96800;;;26;52
68628;BME280;55611;48.602;9.490;2023-06-22T05:20:34;96800;;;26;52
68628;BME280;55611;48.602;9.490;2023-06-22T05:23:04;96790;;;26;52
68628;BME280;55611;48.602;9.490;2023-06-22T05:25:35;96800;;;25.9;52
68628;BME280;55611;48.602;9.490;2023-06-22T05:28:06;96790;;;26;52
68628;BME280;55611;48.602;9.490;2023-06-22T05:30:37;96790;;;26.1;52
68628;BME280;55611;48.602;9.490;2023-06-22T05:33:08;96790;;;26.2;52
68628;BME280;55611;48.602;9.490;2023-06-22T05:35:38;96790;;;26.3;52
68628;BME280;55611;48.602;9.490;2023-06-22T05:38:09;96780;;;26.4;52
68628;BME280;55611;48.602;9.490;2023-06-22T05:40:40;96790;;;26.5;52
68628;BME280;55611;48.602;9.490;2023-06-22T05:43:11;96780;;;26.6;51.5
68628;BME280;55611;48.602;9.490;2023-06-22T05:45:41;96780;;;26.7;51.5
68628;BME280;55611;48.602;9.490;2023-06-22T05:48:12;96780;;;26.8;51.5
68628;BME280;55611;48.602;9.490;2023-06-22T05:50:43;96790;;;26.8;51.5
68628;BME280;55611;48.602;9.490;2023-06-22T05:53:14;96780;;;26.8;51.5
68628;BME280;55611;48.602;9.490;2023-06-22T05:55:44;96790;;;26.8;51.5
68628;BME280;55611;48.602;9.490;2023-06-22T05:58:15;96790;;;26.9;51.5
68628;BME280;55611;48.602;9.490;2023-06-22T06:00:46;96790;;;27;51.5
68628;BME280;55611;48.602;9.490;2023-06-22T06:03:17;96790;;;27;51.5
68628;BME280;55611;48.602;9.490;2023-06-22T06:05:48;96790;;;27;51.5
68628;BME280;55611;48.602;9.490;2023-06-22T06:08:18;96800;;;26.9;51.5
68628;BME280;55611;48.602;9.490;2023-06-22T06:10:49;96790;;;27.1;51.5
68628;BME280;55611;48.602;9.490;2023-06-22T06:13:20;96800;;;27.2;51.5
68628;BME280;55611;48.602;9.490;2023-06-22T06:15:51;96790;;;27.2;51.5
68628;BME280;55611;48.602;9.490;2023-06-22T06:18:21;96780;;;27.4;51.5
68628;BME280;55611;48.602;9.490;2023-06-22T06:20:52;96790;;;27.4;51.5
68628;BME280;55611;48.602;9.490;2023-06-22T06:23:23;96790;;;27.5;51
68628;BME280;55611;48.602;9.490;2023-06-22T06:25:54;96790;;;27.5;51
68628;BME280;55611;48.602;9.490;2023-06-22T06:28:25;96790;;;27.6;51
68628;BME280;55611;48.602;9.490;2023-06-22T06:30:55;96790;;;27.6;51
68628;BME280;55611;48.602;9.490;2023-06-22T06:33:26;96790;;;27.7;51
68628;BME280;55611;48.602;9.490;2023-06-22T06:35:57;96790;;;27.8;51
68628;BME280;55611;48.602;9.490;2023-06-22T06:38:28;96790;;;27.8;51
68628;BME280;55611;48.602;9.490;2023-06-22T06:40:58;96790;;;27.9;51
68628;BME280;55611;48.602;9.490;2023-06-22T06:43:29;96790;;;28;51
68628;BME280;55611;48.602;9.490;2023-06-22T06:46:00;96780;;;28;51
68628;BME280;55611;48.602;9.490;2023-06-22T06:48:31;96780;;;28;51
68628;BME280;55611;48.602;9.490;2023-06-22T06:51:02;96780;;;28.1;51
68628;BME280;55611;48.602;9.490;2023-06-22T06:53:32;96790;;;28.1;51
68628;BME280;55611;48.602;9.490;2023-06-22T06:56:03;96780;;;28.2;50.5
68628;BME280;55611;48.602;9.490;2023-06-22T06:58:34;96780;;;28.2;50.5
68628;BME280;55611;48.602;9.490;2023-06-22T07:01:05;96780;;;28.3;50.5
68628;BME280;55611;48.602;9.490;2023-06-22T07:03:35;96780;;;28.3;50.5
68628;BME280;55611;48.602;9.490;2023-06-22T07:06:07;96780;;;28.4;50.5
68628;BME280;55611;48.602;9.490;2023-06-22T07:08:37;96780;;;28.5;50.5
68628;BME280;55611;48.602;9.490;2023-06-22T07:11:08;96790;;;28.5;50.5
68628;BME280;55611;48.602;9.490;2023-06-22T07:13:39;96790;;;28.6;50.5
68628;BME280;55611;48.602;9.490;2023-06-22T07:16:09;96800;;;28.7;50.5
68628;BME280;55611;48.602;9.490;2023-06-22T07:18:40;96800;;;28.8;50.5
68628;BME280;55611;48.602;9.490;2023-06-22T07:21:11;96800;;;28.8;50.5
68628;BME280;55611;48.602;9.490;2023-06-22T07:23:42;96790;;;28.8;50.5
68628;BME280;55611;48.602;9.490;2023-06-22T07:26:12;96790;;;28.8;50.5
68628;BME280;55611;48.602;9.490;2023-06-22T07:28:43;96790;;;28.9;50.5
68628;BME280;55611;48.602;9.490;2023-06-22T07:31:14;96790;;;29;50.5
68628;BME280;55611;48.602;9.490;2023-06-22T07:33:45;96780;;;29;50.5
68628;BME280;55611;48.602;9.490;2023-06-22T07:36:16;96770;;;29;50.5
68628;BME280;55611;48.602;9.490;2023-06-22T07:38:46;96780;;;29.1;50.5
68628;BME280;55611;48.602;9.490;2023-06-22T07:41:17;96770;;;29.1;50.5
68628;BME280;55611;48.602;9.490;2023-06-22T07:43:48;96760;;;29.2;50
68628;BME280;55611;48.602;9.490;2023-06-22T07:46:19;96760;;;29.3;50
68628;BME280;55611;48.602;9.490;2023-06-22T07:48:49;96750;;;29.3;50
68628;BME280;55611;48.602;9.490;2023-06-22T07:51:20;96750;;;29.4;50
68628;BME280;55611;48.602;9.490;2023-06-22T07:53:51;96750;;;29.4;50
68628;BME280;55611;48.602;9.490;2023-06-22T07:56:22;96740;;;29.6;50
68628;BME280;55611;48.602;9.490;2023-06-22T07:58:52;96720;;;29.6;50
68628;BME280;55611;48.602;9.490;2023-06-22T08:01:23;96730;;;29.6;50
68628;BME280;55611;48.602;9.490;2023-06-22T08:03:54;96730;;;29.7;50
68628;BME280;55611;48.602;9.490;2023-06-22T08:06:25;96720;;;29.8;50
68628;BME280;55611;48.602;9.490;2023-06-22T08:08:56;96720;;;29.7;50
68628;BME280;55611;48.602;9.490;2023-06-22T08:11:26;96700;;;29.7;50
68628;BME280;55611;48.602;9.490;2023-06-22T08:13:57;96710;;;29.8;50
68628;BME280;55611;48.602;9.490;2023-06-22T08:16:28;96720;;;29.9;50
68628;BME280;55611;48.602;9.490;2023-06-22T08:18:59;96710;;;30;49.5
68628;BME280;55611;48.602;9.490;2023-06-22T08:21:29;96700;;;29.9;49.5
68628;BME280;55611;48.602;9.490;2023-06-22T08:24:00;96680;;;30;49.5
68628;BME280;55611;48.602;9.490;2023-06-22T08:26:31;96690;;;30.1;49.5
68628;BME280;55611;48.602;9.490;2023-06-22T08:29:02;96700;;;30.2;49.5
68628;BME280;55611;48.602;9.490;2023-06-22T08:31:33;96700;;;30.2;49.5
68628;BME280;55611;48.602;9.490;2023-06-22T08:36:34;96700;;;30.3;49.5
68628;BME280;55611;48.602;9.490;2023-06-22T08:39:05;96720;;;30.5;49.5
68628;BME280;55611;48.602;9.490;2023-06-22T08:41:36;96730;;;30.5;49.5
68628;BME280;55611;48.602;9.490;2023-06-22T08:44:06;96740;;;30.7;49.5
68628;BME280;55611;48.602;9.490;2023-06-22T08:46:37;96760;;;30.9;49.5
68628;BME280;55611;48.602;9.490;2023-06-22T08:49:08;96770;;;31.1;49
68628;BME280;55611;48.602;9.490;2023-06-22T08:51:39;96780;;;31.2;49
68628;BME280;55611;48.602;9.490;2023-06-22T08:54:09;96790;;;31.1;49
68628;BME280;55611;48.602;9.490;2023-06-22T08:56:40;96800;;;31.2;49
68628;BME280;55611;48.602;9.490;2023-06-22T08:59:11;96810;;;31.3;49
68628;BME280;55611;48.602;9.490;2023-06-22T09:01:42;96810;;;31.2;49
68628;BME280;55611;48.602;9.490;2023-06-22T09:04:13;96820;;;31.2;49
68628;BME280;55611;48.602;9.490;2023-06-22T09:06:43;96810;;;31.2;49
68628;BME280;55611;48.602;9.490;2023-06-22T09:09:15;96810;;;31.1;49
68628;BME280;55611;48.602;9.490;2023-06-22T09:11:45;96810;;;31.1;49
68628;BME280;55611;48.602;9.490;2023-06-22T09:14:16;96810;;;30.9;49
68628;BME280;55611;48.602;9.490;2023-06-22T09:16:46;96810;;;30.8;49
68628;BME280;55611;48.602;9.490;2023-06-22T09:19:17;96820;;;30.8;49
68628;BME280;55611;48.602;9.490;2023-06-22T09:21:48;96800;;;30.8;49
68628;BME280;55611;48.602;9.490;2023-06-22T09:24:19;96810;;;30.7;49
68628;BME280;55611;48.602;9.490;2023-06-22T09:26:50;96800;;;30.7;49
68628;BME280;55611;48.602;9.490;2023-06-22T09:29:20;96800;;;30.6;49
68628;BME280;55611;48.602;9.490;2023-06-22T09:31:51;96800;;;30.6;49
68628;BME280;55611;48.602;9.490;2023-06-22T09:34:22;96780;;;30.6;49
68628;BME280;55611;48.602;9.490;2023-06-22T09:36:53;96770;;;30.7;49
68628;BME280;55611;48.602;9.490;2023-06-22T09:39:23;96750;;;30.8;49
68628;BME280;55611;48.602;9.490;2023-06-22T09:41:54;96750;;;30.8;49
68628;BME280;55611;48.602;9.490;2023-06-22T09:44:25;96750;;;30.8;49
68628;BME280;55611;48.602;9.490;2023-06-22T09:46:56;96750;;;30.8;49
68628;BME280;55611;48.602;9.490;2023-06-22T09:49:27;96760;;;30.8;49
68628;BME280;55611;48.602;9.490;2023-06-22T09:51:57;96760;;;30.9;49
68628;BME280;55611;48.602;9.490;2023-06-22T09:54:28;96750;;;31.1;49
68628;BME280;55611;48.602;9.490;2023-06-22T09:56:59;96760;;;31.2;49
68628;BME280;55611;48.602;9.490;2023-06-22T09:59:30;96750;;;31.2;49
68628;BME280;55611;48.602;9.490;2023-06-22T10:02:00;96750;;;31.1;49
68628;BME280;55611;48.602;9.490;2023-06-22T10:04:31;96750;;;31;49
68628;BME280;55611;48.602;9.490;2023-06-22T10:07:02;96750;;;31;49
68628;BME280;55611;48.602;9.490;2023-06-22T10:09:33;96750;;;31.1;49
68628;BME280;55611;48.602;9.490;2023-06-22T10:12:04;96750;;;31.2;49
68628;BME280;55611;48.602;9.490;2023-06-22T10:14:34;96750;;;31.4;49
68628;BME280;55611;48.602;9.490;2023-06-22T10:17:05;96740;;;31.4;49
68628;BME280;55611;48.602;9.490;2023-06-22T10:22:07;96730;;;31.4;48.5
68628;BME280;55611;48.602;9.490;2023-06-22T10:24:37;96730;;;31.4;48.5
68628;BME280;55611;48.602;9.490;2023-06-22T10:27:08;96730;;;31.5;48.5
68628;BME280;55611;48.602;9.490;2023-06-22T10:29:41;96730;;;31.6;48.5
68628;BME280;55611;48.602;9.490;2023-06-22T10:34:46;96720;;;31.9;48.5
68628;BME280;55611;48.602;9.490;2023-06-22T10:37:18;96720;;;31.9;48.5
68628;BME280;55611;48.602;9.490;2023-06-22T10:42:12;96720;;;31.9;48.5
68628;BME280;55611;48.602;9.490;2023-06-22T10:44:43;96720;;;31.9;48.5
68628;BME280;55611;48.602;9.490;2023-06-22T10:47:14;96710;;;31.9;48.5
68628;BME280;55611;48.602;9.490;2023-06-22T10:49:44;96700;;;31.9;48.5
68628;BME280;55611;48.602;9.490;2023-06-22T10:52:15;96690;;;32.1;48.5
68628;BME280;55611;48.602;9.490;2023-06-22T10:54:46;96690;;;32.1;48.5
68628;BME280;55611;48.602;9.490;2023-06-22T10:57:17;96690;;;32;48.5
68628;BME280;55611;48.602;9.490;2023-06-22T10:59:48;96690;;;32;48.5
68628;BME280;55611;48.602;9.490;2023-06-22T11:02:18;96690;;;32.1;48.5
68628;BME280;55611;48.602;9.490;2023-06-22T11:04:49;96690;;;32.3;48.5
68628;BME280;55611;48.602;9.490;2023-06-22T11:07:20;96690;;;32.4;48.5
68628;BME280;55611;48.602;9.490;2023-06-22T11:09:51;96690;;;32.4;48
68628;BME280;55611;48.602;9.490;2023-06-22T11:12:21;96690;;;32.5;48
68628;BME280;55611;48.602;9.490;2023-06-22T11:14:52;96690;;;32.5;48
68628;BME280;55611;48.602;9.490;2023-06-22T11:17:23;96690;;;32.5;48.5
68628;BME280;55611;48.602;9.490;2023-06-22T11:19:54;96690;;;32.6;48
68628;BME280;55611;48.602;9.490;2023-06-22T11:22:24;96690;;;32.8;48
68628;BME280;55611;48.602;9.490;2023-06-22T11:27:26;96700;;;32.9;48
68628;BME280;55611;48.602;9.490;2023-06-22T11:29:57;96690;;;32.9;48
68628;BME280;55611;48.602;9.490;2023-06-22T11:32:28;96690;;;33;48
68628;BME280;55611;48.602;9.490;2023-06-22T11:34:58;96690;;;33.1;48
68628;BME280;55611;48.602;9.490;2023-06-22T11:39:59;96680;;;33;48
68628;BME280;55611;48.602;9.490;2023-06-22T11:42:30;96670;;;33.1;48
68628;BME280;55611;48.602;9.490;2023-06-22T11:45:01;96670;;;33.2;48
68628;BME280;55611;48.602;9.490;2023-06-22T11:47:32;96660;;;33.4;48
68628;BME280;55611;48.602;9.490;2023-06-22T11:50:02;96670;;;33.4;47.5
68628;BME280;55611;48.602;9.490;2023-06-22T11:52:33;96670;;;33.3;47.5
68628;BME280;55611;48.602;9.490;2023-06-22T11:55:04;96680;;;33.2;47.5
68628;BME280;55611;48.602;9.490;2023-06-22T11:57:35;96670;;;33;47.5
68628;BME280;55611;48.602;9.490;2023-06-22T12:00:06;96670;;;32.9;47.5
68628;BME280;55611;48.602;9.490;2023-06-22T12:02:36;96670;;;32.9;48
68628;BME280;55611;48.602;9.490;2023-06-22T12:05:07;96660;;;33;48
68628;BME280;55611;48.602;9.490;2023-06-22T12:07:38;96650;;;33.1;48
68628;BME280;55611;48.602;9.490;2023-06-22T12:10:09;96640;;;33.3;48
68628;BME280;55611;48.602;9.490;2023-06-22T12:12:39;96640;;;33.4;47.5
68628;BME280;55611;48.602;9.490;2023-06-22T12:15:10;96640;;;33.4;47.5
68628;BME280;55611;48.602;9.490;2023-06-22T12:17:41;96640;;;33.4;47.5
68628;BME280;55611;48.602;9.490;2023-06-22T12:20:12;96640;;;33.6;47.5
68628;BME280;55611;48.602;9.490;2023-06-22T12:22:42;96640;;;33.7;47.5
68628;BME280;55611;48.602;9.490;2023-06-22T12:25:13;96640;;;33.6;47.5
68628;BME280;55611;48.602;9.490;2023-06-22T12:27:44;96650;;;33.5;47.5
68628;BME280;55611;48.602;9.490;2023-06-22T12:30:15;96670;;;33.5;47.5
68628;BME280;55611;48.602;9.490;2023-06-22T12:32:46;96680;;;33.5;47.5
68628;BME280;55611;48.602;9.490;2023-06-22T12:42:47;96680;;;33.1;47.5
68628;BME280;55611;48.602;9.490;2023-06-22T12:45:18;96680;;;33;47.5
68628;BME280;55611;48.602;9.490;2023-06-22T12:47:48;96680;;;33;47.5
68628;BME280;55611;48.602;9.490;2023-06-22T12:50:19;96690;;;33;47.5
68628;BME280;55611;48.602;9.490;2023-06-22T12:52:50;96690;;;32.9;47.5
68628;BME280;55611;48.602;9.490;2023-06-22T12:55:21;96700;;;32.8;47.5
68628;BME280;55611;48.602;9.490;2023-06-22T12:57:51;96700;;;32.8;47.5
68628;BME280;55611;48.602;9.490;2023-06-22T13:00:22;96700;;;32.8;47.5
68628;BME280;55611;48.602;9.490;2023-06-22T13:02:53;96690;;;32.8;47.5
68628;BME280;55611;48.602;9.490;2023-06-22T13:05:24;96690;;;32.8;47.5
68628;BME280;55611;48.602;9.490;2023-06-22T13:07:55;96680;;;32.9;47.5
68628;BME280;55611;48.602;9.490;2023-06-22T13:10:25;96680;;;33.1;47.5
68628;BME280;55611;48.602;9.490;2023-06-22T13:12:56;96680;;;33.1;47.5
68628;BME280;55611;48.602;9.490;2023-06-22T13:15:28;96690;;;33.1;47.5
68628;BME280;55611;48.602;9.490;2023-06-22T13:17:58;96680;;;33.1;47
68628;BME280;55611;48.602;9.490;2023-06-22T13:20:29;96680;;;33.1;47
68628;BME280;55611;48.602;9.490;2023-06-22T13:22:59;96680;;;33.1;47
68628;BME280;55611;48.602;9.490;2023-06-22T13:25:30;96670;;;33.1;47
68628;BME280;55611;48.602;9.490;2023-06-22T13:28:01;96670;;;33.2;47
68628;BME280;55611;48.602;9.490;2023-06-22T13:35:32;96680;;;33.5;47
68628;BME280;55611;48.602;9.490;2023-06-22T13:38:03;96670;;;33.6;47
68628;BME280;55611;48.602;9.490;2023-06-22T13:40:33;96670;;;33.6;47
68628;BME280;55611;48.602;9.490;2023-06-22T13:43:04;96670;;;33.7;47
68628;BME280;55611;48.602;9.490;2023-06-22T13:45:35;96670;;;33.8;47
68628;BME280;55611;48.602;9.490;2023-06-22T13:48:06;96670;;;33.8;47
68628;BME280;55611;48.602;9.490;2023-06-22T13:50:37;96660;;;33.7;47
68628;BME280;55611;48.602;9.490;2023-06-22T13:53:07;96640;;;33.7;47
68628;BME280;55611;48.602;9.490;2023-06-22T13:55:39;96630;;;33.6;47
68628;BME280;55611;48.602;9.490;2023-06-22T13:58:09;96620;;;33.5;47
68628;BME280;55611;48.602;9.490;2023-06-22T14:00:40;96610;;;33.3;47
68628;BME280;55611;48.602;9.490;2023-06-22T14:03:10;96610;;;33.3;47
68628;BME280;55611;48.602;9.490;2023-06-22T14:05:41;96620;;;33.3;47
68628;BME280;55611;48.602;9.490;2023-06-22T14:08:12;96630;;;33.3;47
68628;BME280;55611;48.602;9.490;2023-06-22T14:10:43;96630;;;33.3;47
68628;BME280;55611;48.602;9.490;2023-06-22T14:13:14;96630;;;33.3;47
68628;BME280;55611;48.602;9.490;2023-06-22T14:15:44;96610;;;33.3;47
68628;BME280;55611;48.602;9.490;2023-06-22T14:18:15;96610;;;33.3;47
68628;BME280;55611;48.602;9.490;2023-06-22T14:20:46;96600;;;33.3;47
68628;BME280;55611;48.602;9.490;2023-06-22T14:23:17;96600;;;33.3;47
68628;BME280;55611;48.602;9.490;2023-06-22T14:25:47;96590;;;33.2;47
68628;BME280;55611;48.602;9.490;2023-06-22T14:28:18;96580;;;33.1;47
68628;BME280;55611;48.602;9.490;2023-06-22T14:30:49;96570;;;33.1;47
68628;BME280;55611;48.602;9.490;2023-06-22T14:33:20;96570;;;33.1;47
68628;BME280;55611;48.602;9.490;2023-06-22T14:35:51;96580;;;33.1;47
68628;BME280;55611;48.602;9.490;2023-06-22T14:38:21;96600;;;33.2;47
68628;BME280;55611;48.602;9.490;2023-06-22T14:40:52;96600;;;33.4;47
68628;BME280;55611;48.602;9.490;2023-06-22T14:43:23;96610;;;33.5;47
68628;BME280;55611;48.602;9.490;2023-06-22T14:45:54;96610;;;33.6;46.5
68628;BME280;55611;48.602;9.490;2023-06-22T14:48:24;96610;;;33.6;46.5
68628;BME280;55611;48.602;9.490;2023-06-22T14:50:56;96610;;;33.7;46.5
68628;BME280;55611;48.602;9.490;2023-06-22T14:53:26;96610;;;33.7;46.5
68628;BME280;55611;48.602;9.490;2023-06-22T14:55:57;96610;;;33.6;46.5
68628;BME280;55611;48.602;9.490;2023-06-22T15:01:00;96610;;;33.5;46.5
68628;BME280;55611;48.602;9.490;2023-06-22T15:03:30;96610;;;33.4;46.5
68628;BME280;55611;48.602;9.490;2023-06-22T15:06:00;96600;;;33.3;46.5
68628;BME280;55611;48.602;9.490;2023-06-22T15:08:31;96600;;;33.3;46.5